Halkirk, Canada
Current Conditions -  °F | °C
As of 9:00 AM on Friday 21 Nov 2014 (Local Time) from CYQF Reporting Station
Broken Clouds Broken Clouds  
Wind Chill: 26°   Ceiling: 9000
Heat Index: 32°   Visibility: 15mi
Dew Point: 23°   Wind: 6mph
Humidity: 69%   Direction: 180°S
Pressure: 29.53"   Gusts: NA
Location:  52.28°N, 112.15°W
Report Text: CYQF 211600Z 18005KT 15SM BKN090 BKN120 M00/M05 A2953 RMK AC5AC2 SLP039
Loading
Personal Weather Stations






























Interactive Weather Map New forecast layout! Learn more

10-Day Weather Forecast

Advertisements
Track Severe Weather on mobile